Terminal Aerodrome Forecast
Issued by NWS Tulsa, OK

Home | Current Version | Previous Version | Text Only | Print | Product List | Glossary On
Versions: 1 2 3 4 5 6 7 8 9 10 11 12 13 14 15 16
000
FTUS44 KTSA 042300
TAFFSM
TAF
KFSM 042337Z 0500/0524 01014KT 5SM -SN OVC035
      TEMPO 0500/0504 1 1/2SM -SN BKN008 OVC035
     FM050600 02011KT P6SM OVC050
     FM050900 36007KT P6SM OVC100
     FM051300 34006KT P6SM BKN200=

USA.gov is the U.S. government's official web portal to all federal, state and local government web resources and services.